createdAt,value
2018-08-09T15:36:18.415Z,53.80
2018-08-09T15:38:47.607Z,53.10
2018-08-09T15:41:16.614Z,52.90
2018-08-09T15:43:45.156Z,52.80
2018-08-09T15:46:13.770Z,52.60
2018-08-09T15:48:42.348Z,54.00
2018-08-09T15:51:10.980Z,52.50
2018-08-09T15:53:39.559Z,52.60
2018-08-09T15:56:08.172Z,52.20
2018-08-09T15:58:36.711Z,52.40
2018-08-09T16:01:06.008Z,52.20
2018-08-09T16:03:34.806Z,52.10
2018-08-09T16:06:03.417Z,52.00
2018-08-09T16:08:31.981Z,52.20
2018-08-09T16:11:00.603Z,52.00
2018-08-09T16:13:29.134Z,52.00
2018-08-09T16:15:57.654Z,52.00
2018-08-09T16:18:26.751Z,51.80
2018-08-09T16:20:55.316Z,51.70
2018-08-09T16:23:23.921Z,52.60
2018-08-09T16:25:52.440Z,51.70
2018-08-09T16:28:21.038Z,51.30
2018-08-09T17:10:10.343Z,43.90
2018-08-09T17:12:39.648Z,39.90
2018-08-09T17:15:11.654Z,39.00
2018-08-09T17:17:40.267Z,39.10
2018-08-09T17:20:13.732Z,39.90
2018-08-09T17:22:42.803Z,39.50
2018-08-09T17:25:12.540Z,37.70
2018-08-09T17:27:42.125Z,39.90
2018-08-09T17:30:11.828Z,43.30
2018-08-09T17:32:40.939Z,51.60
2018-08-09T17:35:10.656Z,58.20
2018-08-09T17:37:39.284Z,60.60
2018-08-09T17:40:18.590Z,66.50
2018-08-09T17:42:48.255Z,63.80
2018-08-09T17:45:16.915Z,64.50
2018-08-09T17:47:45.931Z,68.10
2018-08-09T17:50:14.444Z,71.80
2018-08-09T17:52:43.242Z,73.00
2018-08-09T17:55:13.664Z,73.00
2018-08-09T17:57:43.134Z,74.50
2018-08-09T18:00:15.182Z,73.80
2018-08-09T18:02:43.763Z,72.20
2018-08-09T18:05:12.360Z,70.60
2018-08-09T18:07:40.923Z,71.40
2018-08-09T18:10:20.503Z,73.40
2018-08-09T18:12:49.399Z,74.40
2018-08-09T18:15:18.341Z,78.10
2018-08-09T19:21:57.232Z,99.90
2018-08-09T19:24:25.805Z,99.90
2018-08-09T19:26:54.389Z,99.90
2018-08-09T19:29:22.960Z,99.90
2018-08-09T19:31:51.474Z,99.90
2018-08-09T19:34:19.994Z,99.90
2018-08-09T19:36:49.034Z,99.90
2018-08-09T19:39:17.576Z,99.90
2018-08-09T19:41:46.139Z,99.90
2018-08-09T19:44:15.204Z,99.90
2018-08-09T19:46:43.835Z,99.90
2018-08-09T19:49:12.403Z,99.90
2018-08-09T19:51:40.984Z,99.90
2018-08-09T19:54:09.982Z,99.90
2018-08-09T19:56:38.535Z,99.90
2018-08-09T19:59:07.236Z,99.90
2018-08-09T20:01:35.859Z,99.90
2018-08-09T20:04:04.505Z,99.90
2018-08-09T20:06:33.068Z,99.90
2018-08-09T20:09:01.663Z,99.90
2018-08-09T20:11:30.190Z,99.90
2018-08-09T20:13:58.711Z,99.90
2018-08-09T20:16:27.235Z,99.90
2018-08-09T20:18:55.787Z,99.90
2018-08-09T20:21:24.303Z,99.90
2018-08-09T20:23:52.827Z,99.90
2018-08-09T20:26:21.376Z,99.90
2018-08-09T20:28:49.902Z,99.90
2018-08-09T20:31:18.447Z,99.90
2018-08-09T20:33:47.007Z,99.90
2018-08-09T20:36:15.564Z,99.90
2018-08-09T20:38:44.176Z,99.90
2018-08-09T20:41:12.809Z,99.90
2018-08-09T20:43:41.360Z,99.90
2018-08-09T20:46:10.016Z,99.90
2018-08-09T20:48:38.563Z,99.90
2018-08-09T20:51:14.105Z,99.90
2018-08-09T20:53:42.715Z,99.90
2018-08-09T20:56:11.279Z,99.90
2018-08-09T20:58:39.815Z,99.90
2018-08-09T21:01:08.319Z,99.90
2018-08-09T21:03:36.892Z,99.90
2018-08-09T21:06:05.449Z,99.90
2018-08-09T21:08:34.058Z,99.90
2018-08-09T21:11:02.584Z,99.90
2018-08-09T21:13:31.091Z,99.90
2018-08-09T21:15:59.571Z,99.90
2018-08-09T21:18:28.127Z,99.90
2018-08-09T21:20:56.664Z,99.90
2018-08-09T21:23:25.279Z,99.90
2018-08-09T21:25:53.794Z,99.90
2018-08-09T21:28:22.296Z,99.90
2018-08-09T21:30:50.868Z,99.90
2018-08-09T21:33:19.405Z,99.90
2018-08-09T21:35:47.986Z,99.90
2018-08-09T21:38:16.477Z,99.90
2018-08-09T21:40:45.030Z,99.90
2018-08-09T21:43:13.647Z,99.90
2018-08-09T21:45:42.174Z,99.90
2018-08-09T21:48:10.740Z,99.90
2018-08-09T21:50:39.271Z,99.90
2018-08-09T21:53:08.334Z,99.90
2018-08-09T21:55:36.925Z,99.90
2018-08-09T21:58:05.537Z,99.90
2018-08-09T22:01:01.928Z,99.90
2018-08-09T22:03:33.890Z,99.90
2018-08-09T22:06:07.687Z,99.90
2018-08-09T22:08:41.702Z,99.90
2018-08-09T22:11:17.030Z,99.90
2018-08-09T22:13:51.140Z,99.90
2018-08-09T22:16:25.103Z,99.90
2018-08-09T22:18:59.095Z,99.90
2018-08-09T22:21:32.889Z,99.90
2018-08-09T22:24:01.479Z,99.90
2018-08-09T22:26:30.087Z,99.90
2018-08-09T22:28:58.634Z,99.90
2018-08-09T22:31:27.140Z,99.90
2018-08-09T22:33:55.638Z,99.90
2018-08-09T22:36:24.166Z,99.90
2018-08-09T22:38:52.891Z,99.90
2018-08-09T22:41:21.443Z,99.90
2018-08-09T22:43:50.006Z,99.90
2018-08-09T22:46:18.568Z,99.90
2018-08-09T22:48:47.106Z,99.90
2018-08-09T22:51:15.660Z,99.90
2018-08-09T22:53:44.256Z,99.90
2018-08-09T22:56:12.830Z,99.90
2018-08-09T22:58:41.351Z,99.90
2018-08-09T23:01:09.914Z,99.90
2018-08-09T23:03:38.510Z,99.90
2018-08-09T23:06:07.815Z,99.90
2018-08-09T23:08:36.398Z,99.90
2018-08-09T23:11:05.000Z,99.90
2018-08-09T23:13:33.571Z,99.90
2018-08-09T23:16:02.117Z,99.90
2018-08-09T23:18:30.759Z,99.90
2018-08-09T23:20:59.283Z,99.90
2018-08-09T23:23:27.841Z,99.90
2018-08-09T23:25:56.374Z,99.90
2018-08-09T23:28:25.127Z,99.90
2018-08-09T23:30:53.651Z,99.90
2018-08-09T23:33:23.152Z,99.90
2018-08-09T23:35:51.702Z,99.90
2018-08-09T23:38:20.223Z,99.90
2018-08-09T23:40:48.785Z,99.90
2018-08-09T23:43:17.360Z,99.90
2018-08-09T23:45:46.027Z,99.90
2018-08-09T23:48:14.575Z,99.90
2018-08-09T23:50:43.102Z,99.90
2018-08-09T23:53:11.655Z,99.90
2018-08-09T23:55:40.220Z,99.90
2018-08-09T23:58:08.736Z,99.90
